sensor_id;sensor_type;location;lat;lon;timestamp;P1;durP1;ratioP1;P2;durP2;ratioP2
10910;SDS011;5508;49.150;11.030;2023-05-07T00:01:53;5.13;;;3.50;;
10910;SDS011;5508;49.150;11.030;2023-05-07T00:04:53;3.03;;;2.70;;
10910;SDS011;5508;49.150;11.030;2023-05-07T00:07:55;5.00;;;3.40;;
10910;SDS011;5508;49.150;11.030;2023-05-07T00:10:56;4.07;;;3.10;;
10910;SDS011;5508;49.150;11.030;2023-05-07T00:13:56;5.23;;;3.43;;
10910;SDS011;5508;49.150;11.030;2023-05-07T00:16:57;9.60;;;4.03;;
10910;SDS011;5508;49.150;11.030;2023-05-07T00:19:58;3.30;;;2.87;;
10910;SDS011;5508;49.150;11.030;2023-05-07T00:22:58;3.63;;;3.07;;
10910;SDS011;5508;49.150;11.030;2023-05-07T00:25:59;3.73;;;2.93;;
10910;SDS011;5508;49.150;11.030;2023-05-07T00:28:59;3.07;;;2.77;;
10910;SDS011;5508;49.150;11.030;2023-05-07T00:32:00;3.77;;;3.03;;
10910;SDS011;5508;49.150;11.030;2023-05-07T00:35:01;7.13;;;3.27;;
10910;SDS011;5508;49.150;11.030;2023-05-07T00:38:01;4.03;;;3.10;;
10910;SDS011;5508;49.150;11.030;2023-05-07T00:41:02;6.53;;;3.40;;
10910;SDS011;5508;49.150;11.030;2023-05-07T00:44:02;3.80;;;3.20;;
10910;SDS011;5508;49.150;11.030;2023-05-07T00:47:03;6.97;;;3.23;;
10910;SDS011;5508;49.150;11.030;2023-05-07T00:50:06;7.70;;;3.77;;
10910;SDS011;5508;49.150;11.030;2023-05-07T00:53:07;7.23;;;4.27;;
10910;SDS011;5508;49.150;11.030;2023-05-07T00:56:08;9.13;;;3.93;;
10910;SDS011;5508;49.150;11.030;2023-05-07T00:59:09;4.63;;;3.23;;
10910;SDS011;5508;49.150;11.030;2023-05-07T01:02:10;5.10;;;3.43;;
10910;SDS011;5508;49.150;11.030;2023-05-07T01:05:12;3.50;;;3.07;;
10910;SDS011;5508;49.150;11.030;2023-05-07T01:08:15;5.00;;;3.00;;
10910;SDS011;5508;49.150;11.030;2023-05-07T01:11:17;3.40;;;3.07;;
10910;SDS011;5508;49.150;11.030;2023-05-07T01:14:20;5.20;;;2.97;;
10910;SDS011;5508;49.150;11.030;2023-05-07T01:17:21;4.40;;;3.40;;
10910;SDS011;5508;49.150;11.030;2023-05-07T01:20:22;4.07;;;3.00;;
10910;SDS011;5508;49.150;11.030;2023-05-07T01:23:23;4.77;;;3.30;;
10910;SDS011;5508;49.150;11.030;2023-05-07T01:26:25;5.57;;;3.63;;
10910;SDS011;5508;49.150;11.030;2023-05-07T01:29:25;5.83;;;3.63;;
10910;SDS011;5508;49.150;11.030;2023-05-07T01:32:33;6.07;;;3.63;;
10910;SDS011;5508;49.150;11.030;2023-05-07T01:35:59;6.27;;;3.87;;
10910;SDS011;5508;49.150;11.030;2023-05-07T01:39:02;5.73;;;3.53;;
10910;SDS011;5508;49.150;11.030;2023-05-07T01:42:02;5.40;;;4.00;;
10910;SDS011;5508;49.150;11.030;2023-05-07T01:45:03;5.80;;;4.30;;
10910;SDS011;5508;49.150;11.030;2023-05-07T01:48:05;8.27;;;4.90;;
10910;SDS011;5508;49.150;11.030;2023-05-07T01:51:07;5.27;;;4.00;;
10910;SDS011;5508;49.150;11.030;2023-05-07T01:54:08;5.87;;;3.53;;
10910;SDS011;5508;49.150;11.030;2023-05-07T01:57:09;5.70;;;3.70;;
10910;SDS011;5508;49.150;11.030;2023-05-07T02:00:10;5.23;;;2.80;;
10910;SDS011;5508;49.150;11.030;2023-05-07T02:03:11;5.67;;;3.33;;
10910;SDS011;5508;49.150;11.030;2023-05-07T02:06:12;3.50;;;2.93;;
10910;SDS011;5508;49.150;11.030;2023-05-07T02:09:13;3.60;;;2.97;;
10910;SDS011;5508;49.150;11.030;2023-05-07T02:12:14;4.47;;;2.90;;
10910;SDS011;5508;49.150;11.030;2023-05-07T02:15:15;6.97;;;3.87;;
10910;SDS011;5508;49.150;11.030;2023-05-07T02:18:16;3.20;;;2.90;;
10910;SDS011;5508;49.150;11.030;2023-05-07T02:21:17;3.87;;;3.47;;
10910;SDS011;5508;49.150;11.030;2023-05-07T02:24:17;5.23;;;3.87;;
10910;SDS011;5508;49.150;11.030;2023-05-07T02:27:18;5.37;;;3.63;;
10910;SDS011;5508;49.150;11.030;2023-05-07T02:30:19;3.63;;;3.20;;
10910;SDS011;5508;49.150;11.030;2023-05-07T02:33:21;5.47;;;3.20;;
10910;SDS011;5508;49.150;11.030;2023-05-07T02:36:21;5.53;;;3.10;;
10910;SDS011;5508;49.150;11.030;2023-05-07T02:39:22;3.50;;;3.00;;
10910;SDS011;5508;49.150;11.030;2023-05-07T02:42:22;3.40;;;3.10;;
10910;SDS011;5508;49.150;11.030;2023-05-07T02:45:23;8.77;;;3.10;;
10910;SDS011;5508;49.150;11.030;2023-05-07T02:48:24;3.90;;;3.10;;
10910;SDS011;5508;49.150;11.030;2023-05-07T02:51:25;4.33;;;3.67;;
10910;SDS011;5508;49.150;11.030;2023-05-07T02:54:26;6.07;;;3.90;;
10910;SDS011;5508;49.150;11.030;2023-05-07T02:57:27;4.53;;;2.97;;
10910;SDS011;5508;49.150;11.030;2023-05-07T03:00:28;6.93;;;3.33;;
10910;SDS011;5508;49.150;11.030;2023-05-07T03:03:28;4.57;;;3.27;;
10910;SDS011;5508;49.150;11.030;2023-05-07T03:06:29;4.60;;;3.20;;
10910;SDS011;5508;49.150;11.030;2023-05-07T03:09:29;7.27;;;3.20;;
10910;SDS011;5508;49.150;11.030;2023-05-07T03:12:30;4.67;;;3.47;;
10910;SDS011;5508;49.150;11.030;2023-05-07T03:15:31;4.37;;;3.57;;
10910;SDS011;5508;49.150;11.030;2023-05-07T03:18:32;4.60;;;3.53;;
10910;SDS011;5508;49.150;11.030;2023-05-07T03:21:32;5.47;;;3.57;;
10910;SDS011;5508;49.150;11.030;2023-05-07T03:24:34;4.33;;;3.13;;
10910;SDS011;5508;49.150;11.030;2023-05-07T03:27:34;6.13;;;3.50;;
10910;SDS011;5508;49.150;11.030;2023-05-07T03:30:35;3.77;;;2.93;;
10910;SDS011;5508;49.150;11.030;2023-05-07T03:33:38;4.47;;;3.57;;
10910;SDS011;5508;49.150;11.030;2023-05-07T03:36:49;5.63;;;3.97;;
10910;SDS011;5508;49.150;11.030;2023-05-07T03:39:50;3.63;;;3.33;;
10910;SDS011;5508;49.150;11.030;2023-05-07T03:42:50;48.97;;;7.73;;
10910;SDS011;5508;49.150;11.030;2023-05-07T03:45:51;11.57;;;5.17;;
10910;SDS011;5508;49.150;11.030;2023-05-07T03:48:52;11.63;;;4.50;;
10910;SDS011;5508;49.150;11.030;2023-05-07T03:51:52;5.03;;;3.50;;
10910;SDS011;5508;49.150;11.030;2023-05-07T03:54:53;8.97;;;3.90;;
10910;SDS011;5508;49.150;11.030;2023-05-07T03:57:53;4.10;;;3.70;;
10910;SDS011;5508;49.150;11.030;2023-05-07T04:00:54;6.60;;;3.57;;
10910;SDS011;5508;49.150;11.030;2023-05-07T04:03:55;4.17;;;3.77;;
10910;SDS011;5508;49.150;11.030;2023-05-07T04:06:55;3.80;;;3.50;;
10910;SDS011;5508;49.150;11.030;2023-05-07T04:09:56;6.20;;;3.90;;
10910;SDS011;5508;49.150;11.030;2023-05-07T04:12:57;5.43;;;4.50;;
10910;SDS011;5508;49.150;11.030;2023-05-07T04:16:00;4.43;;;3.90;;
10910;SDS011;5508;49.150;11.030;2023-05-07T04:19:02;5.43;;;3.63;;
10910;SDS011;5508;49.150;11.030;2023-05-07T04:22:02;6.30;;;4.10;;
10910;SDS011;5508;49.150;11.030;2023-05-07T04:25:03;9.07;;;4.33;;
10910;SDS011;5508;49.150;11.030;2023-05-07T04:28:04;7.97;;;4.70;;
10910;SDS011;5508;49.150;11.030;2023-05-07T04:31:04;5.50;;;4.47;;
10910;SDS011;5508;49.150;11.030;2023-05-07T04:34:05;6.00;;;4.63;;
10910;SDS011;5508;49.150;11.030;2023-05-07T04:37:07;7.30;;;5.43;;
10910;SDS011;5508;49.150;11.030;2023-05-07T04:40:07;5.90;;;4.50;;
10910;SDS011;5508;49.150;11.030;2023-05-07T04:43:08;5.50;;;3.83;;
10910;SDS011;5508;49.150;11.030;2023-05-07T04:46:09;6.80;;;4.03;;
10910;SDS011;5508;49.150;11.030;2023-05-07T04:49:09;6.53;;;3.87;;
10910;SDS011;5508;49.150;11.030;2023-05-07T04:52:10;5.80;;;4.50;;
10910;SDS011;5508;49.150;11.030;2023-05-07T04:55:11;17.57;;;11.53;;
10910;SDS011;5508;49.150;11.030;2023-05-07T04:58:11;29.67;;;20.53;;
10910;SDS011;5508;49.150;11.030;2023-05-07T05:01:12;23.60;;;17.83;;
10910;SDS011;5508;49.150;11.030;2023-05-07T05:04:13;15.47;;;8.87;;
10910;SDS011;5508;49.150;11.030;2023-05-07T05:07:13;11.00;;;6.53;;
10910;SDS011;5508;49.150;11.030;2023-05-07T05:10:14;6.83;;;6.13;;
10910;SDS011;5508;49.150;11.030;2023-05-07T05:13:16;8.27;;;6.37;;
10910;SDS011;5508;49.150;11.030;2023-05-07T05:16:16;6.53;;;5.23;;
10910;SDS011;5508;49.150;11.030;2023-05-07T05:19:17;21.77;;;17.87;;
10910;SDS011;5508;49.150;11.030;2023-05-07T05:22:17;11.97;;;10.30;;
10910;SDS011;5508;49.150;11.030;2023-05-07T05:25:18;9.97;;;7.63;;
10910;SDS011;5508;49.150;11.030;2023-05-07T05:28:19;9.37;;;6.43;;
10910;SDS011;5508;49.150;11.030;2023-05-07T05:31:19;8.70;;;7.17;;
10910;SDS011;5508;49.150;11.030;2023-05-07T05:34:21;6.20;;;5.60;;
10910;SDS011;5508;49.150;11.030;2023-05-07T05:37:22;6.77;;;6.17;;
10910;SDS011;5508;49.150;11.030;2023-05-07T05:40:22;6.13;;;5.63;;
10910;SDS011;5508;49.150;11.030;2023-05-07T05:43:23;6.60;;;6.00;;
10910;SDS011;5508;49.150;11.030;2023-05-07T05:46:23;6.00;;;5.50;;
10910;SDS011;5508;49.150;11.030;2023-05-07T05:49:24;8.47;;;6.03;;
10910;SDS011;5508;49.150;11.030;2023-05-07T05:52:25;5.73;;;5.23;;
10910;SDS011;5508;49.150;11.030;2023-05-07T05:55:26;5.50;;;5.00;;
10910;SDS011;5508;49.150;11.030;2023-05-07T05:58:27;7.30;;;5.50;;
10910;SDS011;5508;49.150;11.030;2023-05-07T06:01:27;9.53;;;6.27;;
10910;SDS011;5508;49.150;11.030;2023-05-07T06:04:28;6.20;;;5.70;;
10910;SDS011;5508;49.150;11.030;2023-05-07T06:07:28;5.80;;;5.30;;
10910;SDS011;5508;49.150;11.030;2023-05-07T06:10:29;10.73;;;5.30;;
10910;SDS011;5508;49.150;11.030;2023-05-07T06:13:30;6.93;;;6.17;;
10910;SDS011;5508;49.150;11.030;2023-05-07T06:16:31;7.87;;;5.87;;
10910;SDS011;5508;49.150;11.030;2023-05-07T06:19:31;12.87;;;5.33;;
10910;SDS011;5508;49.150;11.030;2023-05-07T06:22:32;6.10;;;5.60;;
10910;SDS011;5508;49.150;11.030;2023-05-07T06:25:33;6.60;;;5.90;;
10910;SDS011;5508;49.150;11.030;2023-05-07T06:28:33;6.73;;;6.07;;
10910;SDS011;5508;49.150;11.030;2023-05-07T06:31:36;7.17;;;6.47;;
10910;SDS011;5508;49.150;11.030;2023-05-07T06:34:37;8.20;;;5.87;;
10910;SDS011;5508;49.150;11.030;2023-05-07T06:37:38;6.60;;;5.90;;
10910;SDS011;5508;49.150;11.030;2023-05-07T06:40:39;7.10;;;5.93;;
10910;SDS011;5508;49.150;11.030;2023-05-07T06:43:40;10.20;;;6.60;;
10910;SDS011;5508;49.150;11.030;2023-05-07T06:46:40;7.30;;;6.40;;
10910;SDS011;5508;49.150;11.030;2023-05-07T06:49:41;6.50;;;5.90;;
10910;SDS011;5508;49.150;11.030;2023-05-07T06:52:42;6.50;;;5.60;;
10910;SDS011;5508;49.150;11.030;2023-05-07T06:55:42;7.30;;;5.77;;
10910;SDS011;5508;49.150;11.030;2023-05-07T06:58:43;5.63;;;5.13;;
10910;SDS011;5508;49.150;11.030;2023-05-07T07:01:43;5.77;;;5.17;;
10910;SDS011;5508;49.150;11.030;2023-05-07T07:04:44;6.30;;;5.30;;
10910;SDS011;5508;49.150;11.030;2023-05-07T07:07:45;5.93;;;5.40;;
10910;SDS011;5508;49.150;11.030;2023-05-07T07:10:52;6.10;;;5.50;;
10910;SDS011;5508;49.150;11.030;2023-05-07T07:13:53;5.73;;;5.17;;
10910;SDS011;5508;49.150;11.030;2023-05-07T07:16:54;5.70;;;5.20;;
10910;SDS011;5508;49.150;11.030;2023-05-07T07:19:54;5.40;;;4.90;;
10910;SDS011;5508;49.150;11.030;2023-05-07T07:22:55;6.80;;;5.57;;
10910;SDS011;5508;49.150;11.030;2023-05-07T07:25:56;5.57;;;5.07;;
10910;SDS011;5508;49.150;11.030;2023-05-07T07:28:56;5.10;;;4.67;;
10910;SDS011;5508;49.150;11.030;2023-05-07T07:31:57;6.83;;;4.80;;
10910;SDS011;5508;49.150;11.030;2023-05-07T07:34:57;6.17;;;5.37;;
10910;SDS011;5508;49.150;11.030;2023-05-07T07:37:58;6.50;;;5.30;;
10910;SDS011;5508;49.150;11.030;2023-05-07T07:40:59;6.00;;;5.10;;
10910;SDS011;5508;49.150;11.030;2023-05-07T07:44:00;5.77;;;5.17;;
10910;SDS011;5508;49.150;11.030;2023-05-07T07:47:01;5.13;;;4.60;;
10910;SDS011;5508;49.150;11.030;2023-05-07T07:50:01;4.73;;;4.27;;
10910;SDS011;5508;49.150;11.030;2023-05-07T07:53:02;5.40;;;4.90;;
10910;SDS011;5508;49.150;11.030;2023-05-07T07:56:02;5.03;;;4.63;;
10910;SDS011;5508;49.150;11.030;2023-05-07T07:59:03;5.10;;;4.50;;
10910;SDS011;5508;49.150;11.030;2023-05-07T08:02:04;7.17;;;5.00;;
10910;SDS011;5508;49.150;11.030;2023-05-07T08:05:05;4.50;;;4.10;;
10910;SDS011;5508;49.150;11.030;2023-05-07T08:08:07;5.37;;;4.23;;
10910;SDS011;5508;49.150;11.030;2023-05-07T08:11:08;5.33;;;4.43;;
10910;SDS011;5508;49.150;11.030;2023-05-07T08:14:10;4.53;;;4.10;;
10910;SDS011;5508;49.150;11.030;2023-05-07T08:17:11;5.20;;;4.40;;
10910;SDS011;5508;49.150;11.030;2023-05-07T08:20:13;4.80;;;4.27;;
10910;SDS011;5508;49.150;11.030;2023-05-07T08:23:13;4.50;;;4.10;;
10910;SDS011;5508;49.150;11.030;2023-05-07T08:26:14;5.10;;;4.33;;
10910;SDS011;5508;49.150;11.030;2023-05-07T08:29:15;4.67;;;4.20;;
10910;SDS011;5508;49.150;11.030;2023-05-07T08:32:15;4.67;;;4.27;;
10910;SDS011;5508;49.150;11.030;2023-05-07T08:35:16;4.63;;;4.23;;
10910;SDS011;5508;49.150;11.030;2023-05-07T08:38:16;10.50;;;7.63;;
10910;SDS011;5508;49.150;11.030;2023-05-07T08:41:17;4.23;;;3.83;;
10910;SDS011;5508;49.150;11.030;2023-05-07T08:44:18;5.77;;;4.40;;
10910;SDS011;5508;49.150;11.030;2023-05-07T08:47:23;5.78;;;4.22;;
10910;SDS011;5508;49.150;11.030;2023-05-07T08:50:35;5.65;;;4.22;;
10910;SDS011;5508;49.150;11.030;2023-05-07T08:53:36;4.85;;;4.25;;
10910;SDS011;5508;49.150;11.030;2023-05-07T08:56:40;5.30;;;4.20;;
10910;SDS011;5508;49.150;11.030;2023-05-07T08:59:41;7.50;;;5.03;;
10910;SDS011;5508;49.150;11.030;2023-05-07T09:02:42;5.30;;;4.90;;
10910;SDS011;5508;49.150;11.030;2023-05-07T09:05:42;4.38;;;4.00;;
10910;SDS011;5508;49.150;11.030;2023-05-07T09:08:48;4.93;;;4.40;;
10910;SDS011;5508;49.150;11.030;2023-05-07T09:11:56;5.67;;;4.50;;
10910;SDS011;5508;49.150;11.030;2023-05-07T09:14:59;5.00;;;4.07;;
10910;SDS011;5508;49.150;11.030;2023-05-07T09:18:00;5.03;;;4.47;;
10910;SDS011;5508;49.150;11.030;2023-05-07T09:21:03;7.22;;;4.72;;
10910;SDS011;5508;49.150;11.030;2023-05-07T09:24:04;5.35;;;4.85;;
10910;SDS011;5508;49.150;11.030;2023-05-07T09:27:05;6.13;;;5.53;;
10910;SDS011;5508;49.150;11.030;2023-05-07T09:30:06;5.35;;;4.68;;
10910;SDS011;5508;49.150;11.030;2023-05-07T09:33:08;4.40;;;4.00;;
10910;SDS011;5508;49.150;11.030;2023-05-07T09:36:09;7.82;;;4.90;;
10910;SDS011;5508;49.150;11.030;2023-05-07T09:39:10;5.93;;;5.32;;
10910;SDS011;5508;49.150;11.030;2023-05-07T09:42:10;6.00;;;4.93;;
10910;SDS011;5508;49.150;11.030;2023-05-07T09:45:12;6.03;;;4.15;;
10910;SDS011;5508;49.150;11.030;2023-05-07T09:48:13;4.90;;;4.07;;
10910;SDS011;5508;49.150;11.030;2023-05-07T09:54:36;4.15;;;3.75;;
10910;SDS011;5508;49.150;11.030;2023-05-07T09:57:41;4.30;;;3.90;;
10910;SDS011;5508;49.150;11.030;2023-05-07T10:00:42;4.05;;;3.40;;
10910;SDS011;5508;49.150;11.030;2023-05-07T10:03:43;5.10;;;4.35;;
10910;SDS011;5508;49.150;11.030;2023-05-07T10:06:45;5.65;;;3.85;;
10910;SDS011;5508;49.150;11.030;2023-05-07T10:09:46;3.97;;;3.60;;
10910;SDS011;5508;49.150;11.030;2023-05-07T10:12:48;4.32;;;3.70;;
10910;SDS011;5508;49.150;11.030;2023-05-07T10:15:49;4.68;;;3.60;;
10910;SDS011;5508;49.150;11.030;2023-05-07T10:18:50;4.05;;;3.55;;
10910;SDS011;5508;49.150;11.030;2023-05-07T10:21:55;4.63;;;3.85;;
10910;SDS011;5508;49.150;11.030;2023-05-07T10:25:02;3.90;;;3.50;;
10910;SDS011;5508;49.150;11.030;2023-05-07T10:28:06;3.78;;;3.25;;
10910;SDS011;5508;49.150;11.030;2023-05-07T10:34:14;8.73;;;3.50;;
10910;SDS011;5508;49.150;11.030;2023-05-07T10:37:19;5.53;;;3.70;;
10910;SDS011;5508;49.150;11.030;2023-05-07T10:40:20;4.05;;;3.65;;
10910;SDS011;5508;49.150;11.030;2023-05-07T10:43:21;4.40;;;3.63;;
10910;SDS011;5508;49.150;11.030;2023-05-07T10:46:22;3.72;;;3.38;;
10910;SDS011;5508;49.150;11.030;2023-05-07T10:49:22;4.95;;;3.30;;
10910;SDS011;5508;49.150;11.030;2023-05-07T10:52:23;3.10;;;2.63;;
10910;SDS011;5508;49.150;11.030;2023-05-07T10:55:26;3.08;;;2.78;;
10910;SDS011;5508;49.150;11.030;2023-05-07T11:08:23;4.85;;;3.50;;
10910;SDS011;5508;49.150;11.030;2023-05-07T11:14:47;3.25;;;2.75;;
10910;SDS011;5508;49.150;11.030;2023-05-07T11:20:58;3.50;;;2.85;;
10910;SDS011;5508;49.150;11.030;2023-05-07T11:23:59;3.13;;;2.53;;
10910;SDS011;5508;49.150;11.030;2023-05-07T11:27:12;3.08;;;2.67;;
10910;SDS011;5508;49.150;11.030;2023-05-07T11:30:22;3.45;;;2.95;;
10910;SDS011;5508;49.150;11.030;2023-05-07T11:33:23;7.10;;;2.90;;
10910;SDS011;5508;49.150;11.030;2023-05-07T11:36:31;2.72;;;2.50;;
10910;SDS011;5508;49.150;11.030;2023-05-07T11:39:33;3.03;;;2.50;;
10910;SDS011;5508;49.150;11.030;2023-05-07T11:42:37;2.60;;;2.40;;
10910;SDS011;5508;49.150;11.030;2023-05-07T11:45:39;3.50;;;2.53;;
10910;SDS011;5508;49.150;11.030;2023-05-07T11:48:39;2.70;;;2.50;;
10910;SDS011;5508;49.150;11.030;2023-05-07T11:51:41;3.40;;;2.60;;
10910;SDS011;5508;49.150;11.030;2023-05-07T11:54:48;4.60;;;2.30;;
10910;SDS011;5508;49.150;11.030;2023-05-07T11:57:56;3.25;;;2.95;;
10910;SDS011;5508;49.150;11.030;2023-05-07T12:00:56;4.07;;;2.47;;
10910;SDS011;5508;49.150;11.030;2023-05-07T12:03:57;3.47;;;2.58;;
10910;SDS011;5508;49.150;11.030;2023-05-07T12:06:58;3.72;;;2.30;;
10910;SDS011;5508;49.150;11.030;2023-05-07T12:09:58;2.50;;;2.30;;
10910;SDS011;5508;49.150;11.030;2023-05-07T12:12:59;2.25;;;1.90;;
10910;SDS011;5508;49.150;11.030;2023-05-07T12:15:59;3.90;;;1.98;;
10910;SDS011;5508;49.150;11.030;2023-05-07T12:19:03;2.45;;;2.25;;
10910;SDS011;5508;49.150;11.030;2023-05-07T12:22:04;3.05;;;2.00;;
10910;SDS011;5508;49.150;11.030;2023-05-07T12:25:05;4.80;;;2.40;;
10910;SDS011;5508;49.150;11.030;2023-05-07T12:28:07;2.75;;;2.13;;
10910;SDS011;5508;49.150;11.030;2023-05-07T12:31:08;2.40;;;2.00;;
10910;SDS011;5508;49.150;11.030;2023-05-07T12:34:10;3.60;;;2.20;;
10910;SDS011;5508;49.150;11.030;2023-05-07T12:37:12;4.32;;;2.30;;
10910;SDS011;5508;49.150;11.030;2023-05-07T12:40:13;2.05;;;1.70;;
10910;SDS011;5508;49.150;11.030;2023-05-07T12:46:18;2.47;;;1.80;;
10910;SDS011;5508;49.150;11.030;2023-05-07T12:49:18;2.50;;;1.80;;
10910;SDS011;5508;49.150;11.030;2023-05-07T12:52:20;4.85;;;2.20;;
10910;SDS011;5508;49.150;11.030;2023-05-07T12:55:20;2.88;;;2.03;;
10910;SDS011;5508;49.150;11.030;2023-05-07T12:58:24;2.40;;;1.88;;
10910;SDS011;5508;49.150;11.030;2023-05-07T13:01:30;2.97;;;2.13;;
10910;SDS011;5508;49.150;11.030;2023-05-07T13:04:31;2.35;;;2.15;;
10910;SDS011;5508;49.150;11.030;2023-05-07T13:07:32;2.58;;;2.10;;
10910;SDS011;5508;49.150;11.030;2023-05-07T13:10:33;3.50;;;2.03;;
10910;SDS011;5508;49.150;11.030;2023-05-07T13:13:34;4.18;;;2.30;;
10910;SDS011;5508;49.150;11.030;2023-05-07T13:16:35;1.80;;;1.70;;
10910;SDS011;5508;49.150;11.030;2023-05-07T13:19:36;2.50;;;1.90;;
10910;SDS011;5508;49.150;11.030;2023-05-07T13:22:37;5.40;;;2.05;;
10910;SDS011;5508;49.150;11.030;2023-05-07T13:25:38;3.03;;;1.88;;
10910;SDS011;5508;49.150;11.030;2023-05-07T13:28:39;5.50;;;2.25;;
10910;SDS011;5508;49.150;11.030;2023-05-07T13:31:39;4.75;;;1.75;;
10910;SDS011;5508;49.150;11.030;2023-05-07T13:34:43;2.88;;;1.88;;
10910;SDS011;5508;49.150;11.030;2023-05-07T13:37:44;2.55;;;1.83;;
10910;SDS011;5508;49.150;11.030;2023-05-07T13:40:45;3.95;;;1.95;;
10910;SDS011;5508;49.150;11.030;2023-05-07T13:43:45;3.25;;;1.88;;
10910;SDS011;5508;49.150;11.030;2023-05-07T13:46:46;2.35;;;1.88;;
10910;SDS011;5508;49.150;11.030;2023-05-07T13:49:46;3.53;;;1.70;;
10910;SDS011;5508;49.150;11.030;2023-05-07T13:52:49;3.08;;;2.33;;
10910;SDS011;5508;49.150;11.030;2023-05-07T13:55:52;2.72;;;2.00;;
10910;SDS011;5508;49.150;11.030;2023-05-07T13:58:53;1.60;;;1.40;;
10910;SDS011;5508;49.150;11.030;2023-05-07T14:01:53;4.05;;;1.83;;
10910;SDS011;5508;49.150;11.030;2023-05-07T14:04:54;2.30;;;1.73;;
10910;SDS011;5508;49.150;11.030;2023-05-07T14:07:56;2.00;;;1.58;;
10910;SDS011;5508;49.150;11.030;2023-05-07T14:10:57;2.22;;;2.03;;
10910;SDS011;5508;49.150;11.030;2023-05-07T14:13:58;2.15;;;1.70;;
10910;SDS011;5508;49.150;11.030;2023-05-07T14:16:59;3.85;;;1.60;;
10910;SDS011;5508;49.150;11.030;2023-05-07T14:20:00;5.97;;;1.98;;
10910;SDS011;5508;49.150;11.030;2023-05-07T14:23:00;2.50;;;1.83;;
10910;SDS011;5508;49.150;11.030;2023-05-07T14:26:01;3.13;;;1.67;;
10910;SDS011;5508;49.150;11.030;2023-05-07T14:29:02;2.28;;;1.58;;
10910;SDS011;5508;49.150;11.030;2023-05-07T14:32:03;1.67;;;1.40;;
10910;SDS011;5508;49.150;11.030;2023-05-07T14:35:04;3.08;;;1.83;;
10910;SDS011;5508;49.150;11.030;2023-05-07T14:38:04;1.63;;;1.48;;
10910;SDS011;5508;49.150;11.030;2023-05-07T14:41:05;2.08;;;1.55;;
10910;SDS011;5508;49.150;11.030;2023-05-07T14:44:06;2.00;;;1.65;;
10910;SDS011;5508;49.150;11.030;2023-05-07T14:47:07;1.50;;;1.40;;
10910;SDS011;5508;49.150;11.030;2023-05-07T14:50:07;3.67;;;1.60;;
10910;SDS011;5508;49.150;11.030;2023-05-07T14:53:08;3.20;;;1.70;;
10910;SDS011;5508;49.150;11.030;2023-05-07T14:56:09;5.78;;;1.60;;
10910;SDS011;5508;49.150;11.030;2023-05-07T14:59:09;4.07;;;1.40;;
10910;SDS011;5508;49.150;11.030;2023-05-07T15:02:13;1.50;;;1.40;;
10910;SDS011;5508;49.150;11.030;2023-05-07T15:05:15;2.25;;;1.50;;
10910;SDS011;5508;49.150;11.030;2023-05-07T15:08:15;2.35;;;1.50;;
10910;SDS011;5508;49.150;11.030;2023-05-07T15:11:16;2.05;;;1.42;;
10910;SDS011;5508;49.150;11.030;2023-05-07T15:14:17;1.80;;;1.30;;
10910;SDS011;5508;49.150;11.030;2023-05-07T15:17:18;2.00;;;1.73;;
10910;SDS011;5508;49.150;11.030;2023-05-07T15:20:18;2.28;;;1.52;;
10910;SDS011;5508;49.150;11.030;2023-05-07T15:23:19;4.70;;;1.80;;
10910;SDS011;5508;49.150;11.030;2023-05-07T15:26:20;2.08;;;1.40;;
10910;SDS011;5508;49.150;11.030;2023-05-07T15:29:20;3.55;;;1.55;;
10910;SDS011;5508;49.150;11.030;2023-05-07T15:32:21;2.67;;;1.90;;
10910;SDS011;5508;49.150;11.030;2023-05-07T15:35:22;1.60;;;1.40;;
10910;SDS011;5508;49.150;11.030;2023-05-07T15:38:23;3.15;;;1.50;;
10910;SDS011;5508;49.150;11.030;2023-05-07T15:41:24;2.92;;;2.00;;
10910;SDS011;5508;49.150;11.030;2023-05-07T15:44:24;1.30;;;1.20;;
10910;SDS011;5508;49.150;11.030;2023-05-07T15:47:30;3.42;;;1.52;;
10910;SDS011;5508;49.150;11.030;2023-05-07T15:50:33;2.03;;;1.80;;
10910;SDS011;5508;49.150;11.030;2023-05-07T15:53:34;3.38;;;2.20;;
10910;SDS011;5508;49.150;11.030;2023-05-07T15:56:34;2.85;;;1.92;;
10910;SDS011;5508;49.150;11.030;2023-05-07T15:59:35;1.83;;;1.73;;
10910;SDS011;5508;49.150;11.030;2023-05-07T16:02:36;2.60;;;2.00;;
10910;SDS011;5508;49.150;11.030;2023-05-07T16:05:36;3.30;;;2.25;;
10910;SDS011;5508;49.150;11.030;2023-05-07T16:08:37;2.10;;;1.90;;
10910;SDS011;5508;49.150;11.030;2023-05-07T16:11:39;2.50;;;1.92;;
10910;SDS011;5508;49.150;11.030;2023-05-07T16:14:39;4.25;;;2.13;;
10910;SDS011;5508;49.150;11.030;2023-05-07T16:17:40;2.97;;;2.03;;
10910;SDS011;5508;49.150;11.030;2023-05-07T16:20:41;2.83;;;2.20;;
10910;SDS011;5508;49.150;11.030;2023-05-07T16:23:42;2.75;;;2.55;;
10910;SDS011;5508;49.150;11.030;2023-05-07T16:26:43;6.30;;;2.70;;
10910;SDS011;5508;49.150;11.030;2023-05-07T16:29:43;2.80;;;2.22;;
10910;SDS011;5508;49.150;11.030;2023-05-07T16:32:44;4.57;;;2.50;;
10910;SDS011;5508;49.150;11.030;2023-05-07T16:35:49;3.25;;;2.65;;
10910;SDS011;5508;49.150;11.030;2023-05-07T16:38:51;9.07;;;2.75;;
10910;SDS011;5508;49.150;11.030;2023-05-07T16:41:51;4.35;;;2.45;;
10910;SDS011;5508;49.150;11.030;2023-05-07T16:44:52;2.90;;;2.70;;
10910;SDS011;5508;49.150;11.030;2023-05-07T16:47:53;4.05;;;2.95;;
10910;SDS011;5508;49.150;11.030;2023-05-07T16:50:56;6.80;;;3.08;;
10910;SDS011;5508;49.150;11.030;2023-05-07T16:53:57;4.47;;;3.25;;
10910;SDS011;5508;49.150;11.030;2023-05-07T16:56:58;3.30;;;3.00;;
10910;SDS011;5508;49.150;11.030;2023-05-07T16:59:58;4.20;;;3.17;;
10910;SDS011;5508;49.150;11.030;2023-05-07T17:02:59;5.00;;;3.20;;
10910;SDS011;5508;49.150;11.030;2023-05-07T17:06:00;3.10;;;2.90;;
10910;SDS011;5508;49.150;11.030;2023-05-07T17:09:00;6.00;;;3.47;;
10910;SDS011;5508;49.150;11.030;2023-05-07T17:12:01;4.68;;;2.92;;
10910;SDS011;5508;49.150;11.030;2023-05-07T17:15:02;4.18;;;3.00;;
10910;SDS011;5508;49.150;11.030;2023-05-07T17:18:03;5.88;;;3.60;;
10910;SDS011;5508;49.150;11.030;2023-05-07T17:21:03;6.85;;;3.17;;
10910;SDS011;5508;49.150;11.030;2023-05-07T17:24:04;5.60;;;3.10;;
10910;SDS011;5508;49.150;11.030;2023-05-07T17:27:05;5.05;;;3.58;;
10910;SDS011;5508;49.150;11.030;2023-05-07T17:30:07;6.67;;;4.00;;
10910;SDS011;5508;49.150;11.030;2023-05-07T17:33:08;6.03;;;4.40;;
10910;SDS011;5508;49.150;11.030;2023-05-07T17:36:08;9.38;;;5.03;;
10910;SDS011;5508;49.150;11.030;2023-05-07T17:39:09;4.78;;;3.50;;
10910;SDS011;5508;49.150;11.030;2023-05-07T17:42:09;4.90;;;3.77;;
10910;SDS011;5508;49.150;11.030;2023-05-07T17:45:10;6.07;;;3.70;;
10910;SDS011;5508;49.150;11.030;2023-05-07T17:48:11;5.67;;;3.77;;
10910;SDS011;5508;49.150;11.030;2023-05-07T17:51:11;3.83;;;3.30;;
10910;SDS011;5508;49.150;11.030;2023-05-07T17:54:12;3.80;;;3.40;;
10910;SDS011;5508;49.150;11.030;2023-05-07T17:57:13;4.10;;;3.70;;
10910;SDS011;5508;49.150;11.030;2023-05-07T18:00:13;4.67;;;3.67;;
10910;SDS011;5508;49.150;11.030;2023-05-07T18:03:15;6.83;;;4.10;;
10910;SDS011;5508;49.150;11.030;2023-05-07T18:06:15;5.13;;;4.03;;
10910;SDS011;5508;49.150;11.030;2023-05-07T18:09:20;5.70;;;3.70;;
10910;SDS011;5508;49.150;11.030;2023-05-07T18:12:21;4.97;;;4.40;;
10910;SDS011;5508;49.150;11.030;2023-05-07T18:15:22;4.50;;;4.10;;
10910;SDS011;5508;49.150;11.030;2023-05-07T18:18:22;4.87;;;4.13;;
10910;SDS011;5508;49.150;11.030;2023-05-07T18:21:25;5.73;;;4.40;;
10910;SDS011;5508;49.150;11.030;2023-05-07T18:24:26;5.90;;;4.50;;
10910;SDS011;5508;49.150;11.030;2023-05-07T18:27:26;6.83;;;4.53;;
10910;SDS011;5508;49.150;11.030;2023-05-07T18:30:27;4.67;;;4.17;;
10910;SDS011;5508;49.150;11.030;2023-05-07T18:33:27;5.87;;;5.30;;
10910;SDS011;5508;49.150;11.030;2023-05-07T18:36:28;4.97;;;4.40;;
10910;SDS011;5508;49.150;11.030;2023-05-07T18:39:29;7.50;;;5.30;;